Time;durP1;ratioP1;P1;durP2;ratioP2;P2;SDS_P1;SDS_P2;PMS_P1;PMS_P2;Temp;Humidity;BMP_temperature;BMP_pressure;BME280_temperature;BME280_humidity;BME280_pressure;Samples;Min_cycle;Max_cycle;Signal;HPM_P1;HPM_P2
2021/03/05 00:00:06;;;;;;;0.70;0.60;;;;;;;3.73;95.78;101393.25;5075579;28;20449;-71
2021/03/05 00:02:32;;;;;;;0.47;0.40;;;;;;;3.58;96.24;101394.75;5075210;28;20982;-71
2021/03/05 00:04:59;;;;;;;0.40;0.30;;;;;;;3.51;95.90;101394.91;5075427;28;20467;-71
2021/03/05 00:07:25;;;;;;;0.40;0.30;;;;;;;3.53;95.93;101406.19;5075330;28;20441;-71
2021/03/05 00:09:51;;;;;;;0.40;0.30;;;;;;;3.57;96.39;101402.00;5075374;28;20445;-71
2021/03/05 00:12:17;;;;;;;1.20;1.07;;;;;;;3.61;96.58;101411.19;5074100;28;20469;-71
2021/03/05 00:14:44;;;;;;;0.40;0.30;;;;;;;3.69;96.99;101404.66;5075194;28;20511;-70
2021/03/05 00:17:11;;;;;;;0.97;0.70;;;;;;;3.65;96.81;101398.16;5075133;28;20488;-71
2021/03/05 00:19:37;;;;;;;0.50;0.40;;;;;;;3.54;95.38;101421.19;5075184;28;20449;-71
2021/03/05 00:22:03;;;;;;;0.43;0.43;;;;;;;3.42;95.91;101418.53;5075023;28;20466;-71
2021/03/05 00:24:30;;;;;;;0.40;0.30;;;;;;;3.25;94.81;101423.75;5074663;28;20469;-71
2021/03/05 00:26:56;;;;;;;0.50;0.47;;;;;;;3.13;95.15;101430.94;5075104;28;20441;-70
2021/03/05 00:29:22;;;;;;;0.50;0.50;;;;;;;3.17;95.03;101429.44;5075001;28;20491;-71
2021/03/05 00:31:48;;;;;;;2.03;1.90;;;;;;;3.24;94.96;101440.06;5074888;28;21011;-71
2021/03/05 00:34:14;;;;;;;0.40;0.30;;;;;;;3.26;95.10;101437.97;5074772;28;20935;-71
2021/03/05 00:36:40;;;;;;;0.90;0.50;;;;;;;3.32;95.08;101425.50;5074535;28;20955;-72
2021/03/05 00:39:06;;;;;;;0.40;0.30;;;;;;;3.38;94.81;101435.31;5074821;28;20488;-71
2021/03/05 00:41:35;;;;;;;0.40;0.30;;;;;;;3.33;93.65;101438.69;5074677;28;20433;-71
2021/03/05 00:44:01;;;;;;;0.40;0.30;;;;;;;3.28;94.17;101443.91;5074653;28;20511;-71
2021/03/05 00:46:27;;;;;;;0.60;0.57;;;;;;;3.32;94.41;101438.88;5074610;28;20434;-71
2021/03/05 00:48:53;;;;;;;0.40;0.40;;;;;;;3.35;94.54;101446.47;5074505;28;20437;-71
2021/03/05 00:51:19;;;;;;;1.80;1.70;;;;;;;3.34;94.00;101447.53;5074454;28;20866;-69
2021/03/05 00:53:45;;;;;;;0.50;0.47;;;;;;;3.32;93.92;101447.75;5074300;28;21005;-71
2021/03/05 00:56:10;;;;;;;0.70;0.50;;;;;;;3.33;93.94;101446.72;5074438;28;20499;-71
2021/03/05 00:58:37;;;;;;;3.13;0.70;;;;;;;3.24;93.95;101445.41;5074410;28;20506;-71
2021/03/05 01:01:04;;;;;;;0.40;0.33;;;;;;;3.11;94.21;101442.94;5074282;28;20441;-71
2021/03/05 01:03:30;;;;;;;0.40;0.30;;;;;;;2.95;94.45;101449.78;5074174;28;20465;-71
2021/03/05 01:05:56;;;;;;;0.60;0.60;;;;;;;3.07;94.49;101450.63;5074193;28;20446;-71
2021/03/05 01:08:22;;;;;;;0.40;0.30;;;;;;;3.07;95.00;101450.63;5074299;28;20441;-71
2021/03/05 01:10:48;;;;;;;0.40;0.30;;;;;;;3.07;95.56;101447.13;5074153;28;20495;-71
2021/03/05 01:13:14;;;;;;;0.70;0.70;;;;;;;3.10;95.43;101452.84;5073786;28;20510;-71
2021/03/05 01:15:41;;;;;;;1.70;1.03;;;;;;;2.90;95.74;101453.13;5073978;28;20481;-71
2021/03/05 01:18:07;;;;;;;0.40;0.40;;;;;;;2.94;96.29;101448.16;5074201;28;20464;-71
2021/03/05 01:20:34;;;;;;;0.50;0.40;;;;;;;2.94;96.50;101456.97;5073974;28;20456;-71
2021/03/05 01:23:00;;;;;;;0.40;0.30;;;;;;;2.94;96.51;101465.00;5073356;28;20473;-70
2021/03/05 01:25:30;;;;;;;0.40;0.30;;;;;;;2.94;96.18;101469.53;5073908;28;20803;-70
2021/03/05 01:27:56;;;;;;;2.13;0.57;;;;;;;2.91;96.32;101467.31;5073739;28;20446;-70
2021/03/05 01:30:22;;;;;;;0.40;0.30;;;;;;;2.93;96.32;101475.94;5073479;28;20445;-70
2021/03/05 01:32:50;;;;;;;0.40;0.30;;;;;;;2.96;95.80;101475.47;5073291;28;20465;-71
2021/03/05 01:35:19;;;;;;;2.20;2.10;;;;;;;2.99;96.29;101480.38;5073799;28;20477;-70
2021/03/05 01:37:45;;;;;;;0.40;0.30;;;;;;;2.78;94.22;101474.47;5073606;28;20441;-70
2021/03/05 01:40:14;;;;;;;0.40;0.30;;;;;;;2.65;93.91;101481.88;5073566;28;20856;-70
2021/03/05 01:42:40;;;;;;;0.40;0.30;;;;;;;2.60;93.83;101479.88;5073512;28;20873;-70
2021/03/05 01:45:09;;;;;;;0.40;0.30;;;;;;;2.48;93.52;101479.03;5073486;28;20822;-71
2021/03/05 01:47:35;;;;;;;0.67;0.67;;;;;;;2.52;94.17;101483.69;5073402;28;20441;-70
2021/03/05 01:50:04;;;;;;;0.40;0.30;;;;;;;2.54;94.43;101480.78;5073441;28;20440;-70
2021/03/05 01:52:30;;;;;;;0.40;0.30;;;;;;;2.43;92.79;101485.03;5073327;28;20464;-70
2021/03/05 01:54:56;;;;;;;0.40;0.30;;;;;;;2.25;93.98;101480.50;5073264;28;20507;-69
2021/03/05 01:57:22;;;;;;;0.40;0.40;;;;;;;2.21;93.80;101482.03;5073299;28;20448;-70
2021/03/05 01:59:48;;;;;;;0.40;0.30;;;;;;;2.08;94.07;101482.16;5075220;28;20441;-71
2021/03/05 02:02:14;;;;;;;0.40;0.30;;;;;;;2.00;94.69;101493.97;5073264;28;20801;-70
2021/03/05 02:04:40;;;;;;;0.40;0.30;;;;;;;2.07;94.93;101487.72;5073263;28;20460;-70
2021/03/05 02:07:08;;;;;;;0.40;0.30;;;;;;;2.07;95.36;101487.72;5073073;28;20507;-69
2021/03/05 02:09:34;;;;;;;1.03;1.03;;;;;;;2.03;95.88;101492.69;5072866;28;20939;-71
2021/03/05 02:12:01;;;;;;;0.47;0.47;;;;;;;2.02;96.01;101494.53;5073184;28;20433;-70
2021/03/05 02:14:27;;;;;;;0.40;0.30;;;;;;;2.08;96.35;101500.88;5072990;28;20495;-71
2021/03/05 02:17:01;;;;;;;0.60;0.50;;;;;;;2.05;95.95;101503.97;5073128;28;20442;-71
2021/03/05 02:20:00;;;;;;;6.03;1.17;;;;;;;2.04;96.40;101505.03;5072924;28;20429;-71
2021/03/05 02:22:53;;;;;;;0.50;0.50;;;;;;;2.06;96.57;101502.94;5069703;28;20463;-71
2021/03/05 02:25:52;;;;;;;0.40;0.30;;;;;;;1.96;96.95;101516.00;5073180;28;20436;-71
2021/03/05 02:28:50;;;;;;;0.40;0.30;;;;;;;1.97;96.08;101517.63;5073079;28;20421;-71
2021/03/05 02:31:24;;;;;;;0.40;0.30;;;;;;;1.79;96.68;101513.06;5073185;28;20432;-71
2021/03/05 02:33:53;;;;;;;0.40;0.30;;;;;;;1.84;97.13;101512.41;5072824;28;20472;-72
2021/03/05 02:36:23;;;;;;;3.07;1.80;;;;;;;1.75;97.16;101523.38;5076219;28;20441;-71
2021/03/05 02:39:01;;;;;;;0.40;0.30;;;;;;;1.76;97.30;101526.84;5076845;28;20453;-71
2021/03/05 02:41:30;;;;;;;1.07;0.97;;;;;;;1.66;96.31;101527.34;5077091;28;20433;-71
2021/03/05 02:43:58;;;;;;;0.40;0.30;;;;;;;1.65;96.46;101525.72;5076972;28;20485;-71
2021/03/05 02:46:26;;;;;;;0.40;0.30;;;;;;;1.64;96.28;101540.13;5076956;28;20448;-71
2021/03/05 02:48:56;;;;;;;0.40;0.40;;;;;;;1.65;96.72;101539.06;5076859;28;20471;-71
2021/03/05 02:51:23;;;;;;;1.23;0.77;;;;;;;1.60;96.57;101544.25;5076588;28;20926;-71
2021/03/05 02:53:51;;;;;;;0.60;0.50;;;;;;;1.59;96.27;101545.25;5076635;28;20461;-71
2021/03/05 02:56:19;;;;;;;1.90;1.07;;;;;;;1.57;96.77;101555.34;5076443;28;20827;-71
2021/03/05 02:58:48;;;;;;;0.40;0.30;;;;;;;1.59;97.26;101558.63;5076353;28;20939;-71
2021/03/05 03:01:15;;;;;;;0.40;0.30;;;;;;;1.61;96.97;101553.88;5076065;28;20468;-71
2021/03/05 03:03:42;;;;;;;0.93;0.60;;;;;;;1.69;97.18;101558.97;5076583;28;20473;-71
2021/03/05 03:06:10;;;;;;;0.40;0.30;;;;;;;1.55;96.97;101562.78;5076353;28;20961;-68
2021/03/05 03:08:37;;;;;;;0.80;0.60;;;;;;;1.65;97.44;101567.63;5076514;28;20448;-70
2021/03/05 03:11:04;;;;;;;0.70;0.43;;;;;;;1.65;96.80;101568.44;5076379;28;20441;-70
2021/03/05 03:13:31;;;;;;;0.83;0.83;;;;;;;1.63;96.96;101572.34;5076345;28;20469;-70
2021/03/05 03:15:59;;;;;;;0.40;0.30;;;;;;;1.54;97.36;101577.13;5076292;28;20480;-71
2021/03/05 03:18:26;;;;;;;0.40;0.30;;;;;;;1.32;97.89;101568.66;5076063;28;21010;-70
2021/03/05 03:20:56;;;;;;;0.60;0.60;;;;;;;1.36;98.49;101577.88;5076230;28;20445;-70
2021/03/05 03:23:22;;;;;;;0.40;0.40;;;;;;;1.44;98.54;101576.81;5075972;28;20851;-71
2021/03/05 03:25:49;;;;;;;0.60;0.60;;;;;;;1.46;98.35;101580.06;5076222;28;20904;-71
2021/03/05 03:28:15;;;;;;;0.40;0.30;;;;;;;1.46;98.83;101582.72;5076192;28;20444;-71
2021/03/05 03:30:41;;;;;;;0.50;0.50;;;;;;;1.55;98.42;101594.81;5076175;28;20441;-70
2021/03/05 03:33:08;;;;;;;0.40;0.30;;;;;;;1.50;98.68;101591.94;5075771;28;21034;-71
2021/03/05 03:35:34;;;;;;;0.40;0.30;;;;;;;1.23;98.37;101591.31;5075857;28;20506;-71
2021/03/05 03:38:02;;;;;;;0.40;0.30;;;;;;;1.20;99.32;101602.41;5075968;28;20441;-71
2021/03/05 03:40:29;;;;;;;0.40;0.30;;;;;;;1.30;99.07;101608.09;5076570;28;20526;-74
2021/03/05 03:42:55;;;;;;;0.40;0.30;;;;;;;1.35;98.90;101610.94;5075846;28;20468;-71
2021/03/05 03:45:23;;;;;;;0.50;0.40;;;;;;;1.38;98.21;101615.06;5076169;28;20449;-71
2021/03/05 03:47:51;;;;;;;0.40;0.30;;;;;;;1.29;97.68;101613.66;5075563;28;20931;-71
2021/03/05 03:50:24;;;;;;;0.40;0.30;;;;;;;1.27;96.87;101617.34;5075536;28;20966;-71
2021/03/05 03:52:54;;;;;;;0.40;0.30;;;;;;;1.24;96.82;101630.31;5075762;28;20476;-71
2021/03/05 03:55:21;;;;;;;0.67;0.67;;;;;;;1.01;97.28;101639.63;5075938;28;20489;-71
2021/03/05 03:57:49;;;;;;;0.40;0.30;;;;;;;1.06;97.47;101632.84;5075664;28;20444;-71
2021/03/05 04:00:17;;;;;;;0.40;0.30;;;;;;;1.08;98.12;101631.59;5075656;28;20437;-70
2021/03/05 04:02:46;;;;;;;1.23;0.80;;;;;;;1.10;97.83;101634.88;5074865;28;20485;-71
2021/03/05 04:05:17;;;;;;;0.40;0.40;;;;;;;1.05;98.19;101640.03;5075459;28;20437;-70
2021/03/05 04:07:44;;;;;;;0.40;0.30;;;;;;;1.04;97.75;101641.06;5075147;28;20426;-70
2021/03/05 04:10:12;;;;;;;0.50;0.43;;;;;;;0.91;97.28;101638.44;5075361;28;20449;-70
2021/03/05 04:12:39;;;;;;;0.40;0.30;;;;;;;0.89;97.45;101654.66;5075297;28;20465;-71
2021/03/05 04:15:06;;;;;;;0.50;0.40;;;;;;;0.82;97.40;101647.72;5078367;28;20859;-71
2021/03/05 04:17:32;;;;;;;1.23;0.60;;;;;;;0.81;97.63;101649.56;5075642;28;20861;-70
2021/03/05 04:20:00;;;;;;;0.40;0.30;;;;;;;0.81;97.42;101662.09;5075405;28;20433;-71
2021/03/05 04:22:26;;;;;;;1.10;0.60;;;;;;;0.81;97.83;101664.75;5075060;28;20453;-71
2021/03/05 04:24:52;;;;;;;0.47;0.40;;;;;;;0.71;98.65;101662.53;5075123;28;20429;-71
2021/03/05 04:27:18;;;;;;;0.40;0.30;;;;;;;0.72;98.46;101672.97;5075160;28;20503;-71
2021/03/05 04:29:45;;;;;;;0.40;0.30;;;;;;;0.73;98.22;101669.25;5075029;28;20441;-70
2021/03/05 04:32:11;;;;;;;0.83;0.83;;;;;;;0.72;97.26;101674.81;5074945;28;20441;-71
2021/03/05 04:34:37;;;;;;;0.40;0.30;;;;;;;0.62;98.26;101679.75;5074827;28;20476;-70
2021/03/05 04:37:03;;;;;;;0.50;0.40;;;;;;;0.70;98.63;101674.19;5074962;28;20499;-71
2021/03/05 04:39:29;;;;;;;0.40;0.30;;;;;;;0.71;98.66;101676.66;5074804;28;20442;-70
2021/03/05 04:41:55;;;;;;;0.40;0.30;;;;;;;0.74;98.00;101676.22;5074715;28;20865;-71
2021/03/05 04:44:21;;;;;;;0.40;0.30;;;;;;;0.74;98.29;101684.22;5074764;28;20461;-70
2021/03/05 04:46:48;;;;;;;0.40;0.30;;;;;;;0.74;98.91;101692.22;5074749;28;20451;-71
2021/03/05 04:49:14;;;;;;;0.70;0.70;;;;;;;0.81;99.34;101694.91;5074660;28;20441;-71
2021/03/05 04:51:40;;;;;;;0.53;0.50;;;;;;;0.85;99.44;101697.97;5074608;28;20442;-71
2021/03/05 04:54:06;;;;;;;0.40;0.30;;;;;;;0.97;99.54;101709.59;5074435;28;20915;-71
2021/03/05 04:56:32;;;;;;;0.40;0.30;;;;;;;0.99;99.91;101704.91;5074317;28;20957;-71
2021/03/05 04:58:58;;;;;;;0.40;0.30;;;;;;;1.01;99.31;101711.66;5074004;28;20441;-69
2021/03/05 05:01:24;;;;;;;0.50;0.50;;;;;;;0.98;99.05;101712.09;5074380;28;20437;-71
2021/03/05 05:03:51;;;;;;;0.40;0.40;;;;;;;0.93;99.48;101706.56;5074189;28;20457;-71
2021/03/05 05:06:17;;;;;;;0.50;0.40;;;;;;;1.03;99.09;101715.97;5074363;28;20479;-71
2021/03/05 05:08:42;;;;;;;0.40;0.40;;;;;;;1.00;98.57;101715.34;5074341;28;20437;-71
2021/03/05 05:11:08;;;;;;;1.07;0.87;;;;;;;0.98;98.59;101716.59;5074250;28;20449;-71
2021/03/05 05:13:34;;;;;;;0.40;0.30;;;;;;;0.96;98.88;101723.97;5074175;28;20792;-71
2021/03/05 05:16:00;;;;;;;0.80;0.50;;;;;;;0.91;98.76;101723.78;5074308;28;20481;-71
2021/03/05 05:18:26;;;;;;;1.53;0.70;;;;;;;0.85;98.53;101732.63;5074323;28;20878;-71
2021/03/05 05:20:53;;;;;;;0.40;0.30;;;;;;;0.85;98.38;101725.47;5073996;28;20975;-70
2021/03/05 05:23:19;;;;;;;0.40;0.30;;;;;;;0.85;97.80;101728.13;5073538;28;21028;-68
2021/03/05 05:25:45;;;;;;;0.50;0.40;;;;;;;0.87;97.58;101725.22;5073885;28;20430;-70
2021/03/05 05:28:11;;;;;;;0.40;0.30;;;;;;;0.68;96.50;101730.41;5074125;28;20441;-71
2021/03/05 05:30:37;;;;;;;0.70;0.70;;;;;;;0.62;95.69;101738.38;5074161;28;20869;-71
2021/03/05 05:33:03;;;;;;;0.80;0.43;;;;;;;0.60;95.94;101735.94;5073967;28;20456;-70
2021/03/05 05:35:29;;;;;;;0.40;0.30;;;;;;;0.55;95.57;101742.91;5073366;28;20477;-70
2021/03/05 05:37:56;;;;;;;2.53;0.80;;;;;;;0.45;95.92;101748.66;5073667;28;20441;-70
2021/03/05 05:40:22;;;;;;;0.40;0.30;;;;;;;0.21;96.59;101742.91;5073614;28;20433;-71
2021/03/05 05:42:48;;;;;;;1.90;1.80;;;;;;;0.13;96.98;101748.41;5073734;28;20465;-70
2021/03/05 05:45:14;;;;;;;0.40;0.30;;;;;;;-0.02;96.87;101753.13;5073784;28;20433;-71
2021/03/05 05:47:41;;;;;;;0.40;0.30;;;;;;;-0.11;97.29;101754.31;5073710;28;20452;-69
2021/03/05 05:50:08;;;;;;;0.50;0.50;;;;;;;-0.17;98.66;101755.94;5073462;28;20441;-69
2021/03/05 05:52:36;;;;;;;0.40;0.30;;;;;;;0.05;97.91;101759.28;5073318;28;20453;-70
2021/03/05 05:55:04;;;;;;;0.40;0.30;;;;;;;0.16;97.39;101765.84;5073529;28;20488;-70
2021/03/05 05:57:33;;;;;;;0.40;0.30;;;;;;;0.21;96.87;101768.72;5073228;28;20499;-70
2021/03/05 05:59:59;;;;;;;0.40;0.30;;;;;;;0.23;96.65;101762.19;5073476;28;20438;-70
2021/03/05 06:02:27;;;;;;;1.00;0.73;;;;;;;0.19;96.69;101771.59;5073327;28;20441;-70
2021/03/05 06:04:53;;;;;;;0.40;0.30;;;;;;;0.20;96.64;101769.75;5073330;28;20444;-69
2021/03/05 06:07:19;;;;;;;0.40;0.30;;;;;;;0.17;96.33;101778.13;5073046;28;20954;-69
2021/03/05 06:09:49;;;;;;;0.40;0.30;;;;;;;0.02;97.16;101790.81;5072251;28;20437;-70
2021/03/05 06:12:16;;;;;;;0.40;0.30;;;;;;;-0.01;97.64;101787.53;5074515;28;20441;-70
2021/03/05 06:14:42;;;;;;;0.40;0.30;;;;;;;-0.14;98.51;101784.81;5074433;28;21002;-69
2021/03/05 06:17:09;;;;;;;0.40;0.30;;;;;;;0.04;98.08;101789.59;5073123;28;20934;-69
2021/03/05 06:19:35;;;;;;;0.83;0.50;;;;;;;-0.10;99.00;101785.25;5072997;28;20450;-70
2021/03/05 06:22:01;;;;;;;0.60;0.50;;;;;;;-0.08;99.57;101799.19;5073158;28;20935;-70
2021/03/05 06:24:28;;;;;;;0.40;0.30;;;;;;;0.08;98.53;101798.81;5072571;28;20480;-70
2021/03/05 06:26:55;;;;;;;0.40;0.40;;;;;;;0.04;97.20;101802.91;5073023;28;20452;-71
2021/03/05 06:29:24;;;;;;;0.50;0.47;;;;;;;0.01;97.47;101803.31;5073065;28;20441;-71
2021/03/05 06:31:56;;;;;;;1.33;0.67;;;;;;;0.09;97.04;101807.63;5079069;28;20441;-71
2021/03/05 06:34:22;;;;;;;0.40;0.30;;;;;;;0.10;96.79;101811.94;5074984;28;20493;-71
2021/03/05 06:37:02;;;;;;;0.50;0.40;;;;;;;0.05;96.88;101817.88;5073203;28;20441;-70
2021/03/05 06:39:28;;;;;;;1.70;0.87;;;;;;;0.05;96.81;101822.38;5073047;28;20425;-70
2021/03/05 06:42:02;;;;;;;0.40;0.30;;;;;;;0.02;96.65;101820.13;5073038;28;20494;-70
2021/03/05 06:44:29;;;;;;;0.40;0.40;;;;;;;0.00;97.37;101823.00;5072835;28;20827;-70
2021/03/05 06:46:55;;;;;;;0.40;0.30;;;;;;;0.11;96.73;101824.25;5072980;28;20446;-70
2021/03/05 06:49:21;;;;;;;0.40;0.30;;;;;;;0.17;96.91;101834.06;5073081;28;20494;-71
2021/03/05 06:51:52;;;;;;;1.03;1.03;;;;;;;0.31;96.64;101829.59;5073091;28;20441;-72
2021/03/05 06:54:18;;;;;;;0.40;0.30;;;;;;;0.35;96.98;101841.50;5072991;28;20482;-71
2021/03/05 06:56:47;;;;;;;0.40;0.30;;;;;;;0.45;96.85;101844.59;5072968;28;20434;-73
2021/03/05 06:59:15;;;;;;;0.40;0.30;;;;;;;0.53;97.07;101847.06;5072947;28;20515;-71
2021/03/05 07:01:53;;;;;;;0.80;0.50;;;;;;;0.58;96.74;101855.28;5072238;28;20833;-73
2021/03/05 07:04:21;;;;;;;0.40;0.30;;;;;;;0.56;97.04;101860.00;5072608;28;20830;-71
2021/03/05 07:06:56;;;;;;;1.63;0.80;;;;;;;0.58;97.37;101857.16;5072429;28;20433;-70
2021/03/05 07:09:24;;;;;;;0.67;0.50;;;;;;;0.58;97.45;101865.13;5072528;28;20793;-69
2021/03/05 07:11:52;;;;;;;3.70;0.97;;;;;;;0.49;97.52;101873.31;5072797;28;20810;-70
2021/03/05 07:14:19;;;;;;;0.40;0.30;;;;;;;0.52;97.64;101872.06;5072568;28;20465;-69
2021/03/05 07:16:50;;;;;;;0.40;0.30;;;;;;;0.59;98.12;101872.09;5072756;28;20494;-70
2021/03/05 07:19:19;;;;;;;0.70;0.60;;;;;;;0.62;98.32;101882.34;5072657;28;20437;-69
2021/03/05 07:21:46;;;;;;;0.40;0.30;;;;;;;0.70;98.40;101885.63;5074945;28;20441;-70
2021/03/05 07:24:14;;;;;;;0.93;0.53;;;;;;;0.73;98.32;101890.56;5075906;28;20477;-70
2021/03/05 07:26:52;;;;;;;0.40;0.30;;;;;;;0.82;98.81;101887.72;5076320;28;20441;-70
2021/03/05 07:29:21;;;;;;;0.40;0.30;;;;;;;0.90;98.51;101900.84;5075620;28;20483;-70
2021/03/05 07:32:15;;;;;;;0.50;0.40;;;;;;;0.94;98.54;101905.56;5076280;28;20441;-70
2021/03/05 07:34:47;;;;;;;2.20;0.70;;;;;;;0.95;98.42;101901.06;5065236;28;20488;-70
2021/03/05 07:37:14;;;;;;;1.03;0.60;;;;;;;1.03;98.20;101895.53;5075876;28;20821;-69
2021/03/05 07:39:42;;;;;;;0.40;0.30;;;;;;;1.08;98.18;101902.91;5075899;28;20450;-69
2021/03/05 07:42:09;;;;;;;1.53;1.43;;;;;;;1.12;98.05;101902.28;5075986;28;20506;-69
2021/03/05 07:44:36;;;;;;;0.40;0.30;;;;;;;1.18;98.41;101898.78;5076169;28;20872;-69
2021/03/05 07:47:07;;;;;;;1.10;0.83;;;;;;;1.23;97.94;101900.84;5075798;28;20550;-70
2021/03/05 07:49:35;;;;;;;1.20;0.80;;;;;;;1.06;98.29;101905.78;5075779;28;20456;-70
2021/03/05 07:52:03;;;;;;;0.40;0.40;;;;;;;1.11;99.36;101905.19;5075908;28;20648;-70
2021/03/05 07:54:48;;;;;;;0.40;0.40;;;;;;;1.19;99.19;101910.28;5074950;28;20485;-70
2021/03/05 07:57:48;;;;;;;0.40;0.30;;;;;;;1.27;98.76;101905.56;5075877;28;20433;-72
2021/03/05 08:00:39;;;;;;;0.40;0.30;;;;;;;1.32;99.01;101904.13;5075734;28;20430;-70
2021/03/05 08:03:06;;;;;;;0.40;0.30;;;;;;;1.51;98.33;101909.44;5075379;28;20477;-69
2021/03/05 08:05:43;;;;;;;0.40;0.30;;;;;;;1.68;98.44;101907.16;5075889;28;20529;-70
2021/03/05 08:08:20;;;;;;;0.40;0.30;;;;;;;1.76;98.13;101911.44;5075495;28;20859;-69
2021/03/05 08:10:49;;;;;;;0.63;0.60;;;;;;;1.80;97.42;101911.84;5075617;28;20445;-70
2021/03/05 08:13:48;;;;;;;0.40;0.30;;;;;;;1.83;97.24;101924.78;5075129;28;20536;-70
2021/03/05 08:16:39;;;;;;;0.93;0.87;;;;;;;1.86;97.17;101922.53;5075381;28;20515;-69
2021/03/05 08:19:48;;;;;;;7.43;0.97;;;;;;;1.81;95.99;101926.84;5075394;28;20440;-69
2021/03/05 08:22:19;;;;;;;16.90;2.27;;;;;;;1.80;96.90;101934.03;5075210;28;20538;-70
2021/03/05 08:24:46;;;;;;;0.97;0.50;;;;;;;1.93;95.68;101938.53;5075377;28;20422;-70
2021/03/05 08:27:15;;;;;;;0.40;0.37;;;;;;;2.08;95.26;101936.44;5074863;28;20945;-68
2021/03/05 08:30:11;;;;;;;1.60;1.50;;;;;;;2.30;95.05;101933.44;5075167;28;20437;-68
2021/03/05 08:33:01;;;;;;;0.53;0.50;;;;;;;2.34;93.79;101948.84;5073265;28;20496;-69
2021/03/05 08:35:48;;;;;;;0.40;0.30;;;;;;;2.33;93.24;101949.91;5074939;28;20535;-69
2021/03/05 08:38:19;;;;;;;0.40;0.30;;;;;;;2.47;93.65;101951.47;5074652;28;20935;-69
2021/03/05 08:40:51;;;;;;;0.40;0.30;;;;;;;2.72;93.64;101964.91;5076477;28;20517;-69
2021/03/05 08:43:25;;;;;;;1.00;1.00;;;;;;;2.81;92.45;101965.50;5075422;28;20545;-69
2021/03/05 08:45:53;;;;;;;0.93;0.87;;;;;;;2.76;91.71;101955.44;5078052;28;20429;-69
2021/03/05 08:48:48;;;;;;;0.40;0.30;;;;;;;2.96;90.95;101965.19;5076236;28;20965;-70
2021/03/05 08:51:16;;;;;;;1.37;0.57;;;;;;;2.99;90.86;101972.78;5050669;28;20957;-70
2021/03/05 08:53:46;;;;;;;0.40;0.37;;;;;;;3.13;89.77;101978.88;5074611;28;20493;-68
2021/03/05 08:56:17;;;;;;;0.40;0.30;;;;;;;3.19;88.23;101973.47;5074715;28;20481;-69
2021/03/05 08:58:44;;;;;;;0.40;0.30;;;;;;;3.22;88.03;101983.75;5074671;28;20779;-70
2021/03/05 09:01:32;;;;;;;1.40;1.30;;;;;;;3.02;87.34;101975.03;5073934;28;20510;-70
2021/03/05 09:04:12;;;;;;;0.43;0.40;;;;;;;2.85;88.05;101990.78;5074046;28;20897;-70
2021/03/05 09:06:47;;;;;;;0.50;0.40;;;;;;;2.68;88.46;101982.44;5074382;28;20452;-70
2021/03/05 09:09:14;;;;;;;0.50;0.43;;;;;;;2.78;88.75;101996.16;5074412;28;20440;-70
2021/03/05 09:11:40;;;;;;;0.40;0.30;;;;;;;2.87;88.68;101988.69;5074003;28;20447;-70
2021/03/05 09:14:29;;;;;;;1.07;1.07;;;;;;;2.87;89.62;101998.59;5073839;28;20465;-70
2021/03/05 09:16:57;;;;;;;0.40;0.30;;;;;;;2.78;87.53;102001.50;5063354;28;20446;-70
2021/03/05 09:19:34;;;;;;;0.40;0.30;;;;;;;2.74;87.95;101997.63;5074174;28;20453;-70
2021/03/05 09:22:13;;;;;;;0.40;0.40;;;;;;;2.69;87.56;101994.78;5074054;28;20437;-70
2021/03/05 09:24:48;;;;;;;0.40;0.30;;;;;;;2.62;88.12;102001.22;5073981;28;20429;-69
2021/03/05 09:27:19;;;;;;;0.40;0.30;;;;;;;2.77;88.15;102005.22;5073909;28;20494;-70
2021/03/05 09:29:45;;;;;;;0.40;0.30;;;;;;;2.83;88.48;102011.56;5073696;28;20440;-69
2021/03/05 09:32:11;;;;;;;0.40;0.33;;;;;;;2.98;87.89;102012.13;5073887;28;20437;-68
2021/03/05 09:34:50;;;;;;;0.50;0.40;;;;;;;3.06;87.37;102018.25;5073795;28;20487;-70
2021/03/05 09:37:18;;;;;;;0.40;0.40;;;;;;;3.13;86.41;102024.38;5073805;28;20421;-69
2021/03/05 09:39:44;;;;;;;0.40;0.30;;;;;;;3.14;85.69;102026.81;5073721;28;20452;-69
2021/03/05 09:42:12;;;;;;;0.40;0.30;;;;;;;3.12;85.25;102028.91;5075020;28;20441;-72
2021/03/05 09:44:45;;;;;;;0.87;0.87;;;;;;;3.06;84.10;102032.47;5073623;28;20441;-71
2021/03/05 09:47:11;;;;;;;0.83;0.83;;;;;;;2.99;84.10;102035.16;5073395;28;20925;-69
2021/03/05 09:49:37;;;;;;;0.40;0.30;;;;;;;3.01;84.67;102035.78;5073359;28;20454;-71
2021/03/05 09:52:04;;;;;;;0.40;0.40;;;;;;;3.19;83.17;102029.69;5072813;28;20434;-70
2021/03/05 09:54:34;;;;;;;0.40;0.30;;;;;;;3.20;83.49;102043.91;5072168;28;20464;-70
2021/03/05 09:57:01;;;;;;;0.43;0.43;;;;;;;3.34;79.98;102047.31;5073535;28;20518;-70
2021/03/05 09:59:40;;;;;;;2.10;0.60;;;;;;;3.44;81.74;102043.09;5073505;28;20445;-70
2021/03/05 10:02:07;;;;;;;0.40;0.30;;;;;;;3.52;80.01;102044.72;5073492;28;20432;-70
2021/03/05 10:04:41;;;;;;;0.50;0.40;;;;;;;3.57;79.63;102042.19;5073346;28;20468;-71
2021/03/05 10:07:07;;;;;;;0.77;0.50;;;;;;;3.53;79.45;102036.44;5073546;28;20426;-69
2021/03/05 10:09:33;;;;;;;0.40;0.30;;;;;;;3.65;77.15;102041.09;5073367;28;20491;-71
2021/03/05 10:11:59;;;;;;;0.40;0.30;;;;;;;3.71;71.68;102043.72;5073333;28;20437;-69
2021/03/05 10:14:26;;;;;;;0.50;0.40;;;;;;;3.82;71.60;102042.19;5073077;28;20465;-70
2021/03/05 10:16:53;;;;;;;0.50;0.40;;;;;;;4.00;68.51;102052.94;5073289;28;20441;-70
2021/03/05 10:19:21;;;;;;;0.50;0.40;;;;;;;4.27;69.14;102050.00;5073422;28;20819;-71
2021/03/05 10:21:49;;;;;;;1.40;0.73;;;;;;;4.57;70.22;102050.09;5073191;28;20452;-70
2021/03/05 10:24:17;;;;;;;0.40;0.30;;;;;;;4.65;63.77;102062.34;5072811;28;20476;-70
2021/03/05 10:29:40;;;;;;;0.40;0.30;;;;;;;4.42;64.36;102071.91;5072739;28;20800;-71
2021/03/05 10:32:18;;;;;;;0.60;0.60;;;;;;;4.27;66.72;102074.16;5073201;28;20441;-70
2021/03/05 10:34:45;;;;;;;0.50;0.40;;;;;;;4.39;66.15;102064.31;5073061;28;20508;-71
2021/03/05 10:37:11;;;;;;;0.70;0.60;;;;;;;4.55;68.46;102074.44;5073111;28;20449;-70
2021/03/05 10:39:37;;;;;;;0.40;0.30;;;;;;;4.65;67.54;102071.25;5072964;28;20445;-71
2021/03/05 10:42:05;;;;;;;0.40;0.30;;;;;;;4.99;66.27;102075.16;5072869;28;20442;-70
2021/03/05 10:44:32;;;;;;;0.90;0.90;;;;;;;5.00;63.84;102068.75;5072880;28;20472;-71
2021/03/05 10:46:59;;;;;;;0.50;0.40;;;;;;;5.18;64.37;102065.19;5073014;28;20445;-70
2021/03/05 10:49:26;;;;;;;0.40;0.30;;;;;;;5.34;64.80;102069.09;5073047;28;20438;-71
2021/03/05 10:51:52;;;;;;;0.40;0.40;;;;;;;5.30;60.09;102074.09;5072928;28;20502;-70
2021/03/05 10:54:18;;;;;;;0.40;0.30;;;;;;;5.47;57.99;102078.81;5072591;28;20449;-71
2021/03/05 10:56:45;;;;;;;0.40;0.30;;;;;;;5.75;57.76;102080.84;5075652;28;20503;-71
2021/03/05 10:59:13;;;;;;;0.87;0.47;;;;;;;5.78;58.70;102086.59;5078273;28;20472;-70
2021/03/05 11:01:39;;;;;;;0.73;0.70;;;;;;;5.82;58.42;102087.78;5076810;28;20452;-70
2021/03/05 11:04:05;;;;;;;2.20;0.50;;;;;;;5.75;58.37;102089.75;5076329;28;20871;-70
2021/03/05 11:06:32;;;;;;;0.40;0.30;;;;;;;5.70;55.84;102103.06;5076832;28;20445;-70
2021/03/05 11:08:59;;;;;;;0.83;0.40;;;;;;;5.42;54.94;102102.88;5076688;28;20444;-69
2021/03/05 11:11:25;;;;;;;0.40;0.30;;;;;;;5.49;54.49;102099.06;5076635;28;20445;-68
2021/03/05 11:13:51;;;;;;;0.83;0.83;;;;;;;5.45;54.55;102087.13;5076373;28;20538;-70
2021/03/05 11:16:17;;;;;;;0.40;0.30;;;;;;;5.55;55.01;102102.69;5076455;28;20480;-71
2021/03/05 11:18:43;;;;;;;0.40;0.30;;;;;;;5.64;53.90;102100.50;5076444;28;20429;-70
2021/03/05 11:21:09;;;;;;;0.40;0.30;;;;;;;5.81;53.66;102102.28;5076373;28;20441;-69
2021/03/05 11:23:39;;;;;;;0.40;0.30;;;;;;;6.12;53.62;102097.66;5075956;28;20559;-71
2021/03/05 11:26:05;;;;;;;0.40;0.30;;;;;;;6.48;53.39;102090.38;5076211;28;20441;-70
2021/03/05 11:28:31;;;;;;;0.40;0.30;;;;;;;6.55;52.23;102091.06;5075868;28;20521;-70
2021/03/05 11:30:57;;;;;;;10.20;0.77;;;;;;;6.70;51.84;102095.97;5076188;28;20441;-71
2021/03/05 11:33:23;;;;;;;0.40;0.30;;;;;;;6.57;50.78;102094.34;5076045;28;20966;-70
2021/03/05 11:35:49;;;;;;;0.40;0.20;;;;;;;6.60;51.78;102091.19;5076139;28;20482;-70
2021/03/05 11:38:15;;;;;;;0.40;0.30;;;;;;;7.00;50.84;102095.78;5075940;28;20800;-70
2021/03/05 11:40:42;;;;;;;0.40;0.30;;;;;;;7.17;47.32;102106.56;5076063;28;20449;-70
2021/03/05 11:43:08;;;;;;;0.40;0.30;;;;;;;7.43;47.11;102089.00;5075342;28;20481;-70
2021/03/05 11:45:34;;;;;;;0.40;0.30;;;;;;;7.92;44.67;102102.75;5075894;28;20437;-71